Terminal Aerodrome Forecast
Issued by NWS

Home | Current Version | Previous Version | Text Only | Print | Product List | Glossary On
Versions: 1 2 3 4 5 6 7 8 9 10 11 12 13
000
FTUS45 KPSR 300000 AAA
TAFBLH
TAF AMD
KBLH 300057Z 3001/3024 16008KT P6SM SKC
      TEMPO 3003/3006 25005KT
     FM300600 VRB05KT P6SM SKC
     FM301900 18010KT P6SM SKC=

USA.gov is the U.S. government's official web portal to all federal, state and local government web resources and services.